X  Close Metar Aviation Weather Data     EFPO Pori Airport
Temperature
11°C Temperature
8°C Dewpoint
82% Humidity



Wind
3 M/S
6 MPH
10 KM/H
5 KTS



240°
WSW
Current Conditions

Clear Clear
Pressure 1009.92 (hPa) - 29.82 (inHg)
Visibility 6.2 (mile) - 10 (km)
Airport
Airport-code EFPO

Location: Pori Airport
Distance: 56 (km)

Metar:
EFPO 040120Z AUTO 24005KT CAVOK 11/08 Q1010

Time: 04-08-2021 04:20 EEST